createdAt,value
2018-11-11T00:00:28.301Z,30.12
2018-11-11T00:02:56.337Z,27.17
2018-11-11T00:05:24.496Z,27.48
2018-11-11T00:07:52.923Z,27.73
2018-11-11T00:10:37.316Z,26.50
2018-11-11T00:13:05.564Z,26.30
2018-11-11T00:15:33.585Z,25.32
2018-11-11T00:18:01.555Z,26.73
2018-11-11T00:20:29.496Z,25.52
2018-11-11T00:22:57.450Z,25.25
2018-11-11T00:25:25.443Z,27.55
2018-11-11T00:27:53.561Z,25.05
2018-11-11T00:30:22.490Z,25.68
2018-11-11T00:32:51.059Z,25.95
2018-11-11T00:35:21.071Z,23.62
2018-11-11T00:37:49.635Z,27.58
2018-11-11T00:40:17.967Z,28.32
2018-11-11T00:42:46.327Z,30.30
2018-11-11T00:45:14.992Z,30.20
2018-11-11T00:47:44.552Z,29.50
2018-11-11T00:50:13.020Z,29.20
2018-11-11T00:52:41.828Z,28.20
2018-11-11T00:55:11.515Z,27.50
2018-11-11T00:57:39.752Z,29.50
2018-11-11T01:00:11.447Z,29.35
2018-11-11T01:02:39.672Z,30.48
2018-11-11T01:05:09.039Z,30.30
2018-11-11T01:07:38.275Z,27.60
2018-11-11T01:10:07.225Z,27.05
2018-11-11T01:12:35.230Z,27.00
2018-11-11T01:15:03.526Z,27.22
2018-11-11T01:17:31.464Z,26.57
2018-11-11T01:19:59.699Z,27.87
2018-11-11T01:22:28.100Z,24.45
2018-11-11T01:24:56.548Z,25.70
2018-11-11T01:27:24.519Z,25.88
2018-11-11T01:29:52.598Z,30.43
2018-11-11T01:32:20.557Z,25.97
2018-11-11T01:34:48.736Z,27.27
2018-11-11T01:37:16.679Z,26.40
2018-11-11T01:39:44.979Z,27.25
2018-11-11T01:42:13.046Z,24.87
2018-11-11T01:44:41.115Z,24.67
2018-11-11T01:47:09.332Z,24.23
2018-11-11T01:49:37.483Z,26.70
2018-11-11T01:52:05.766Z,25.05
2018-11-11T01:54:34.220Z,26.40
2018-11-11T01:57:02.269Z,26.48
2018-11-11T01:59:30.343Z,26.95
2018-11-11T02:01:59.334Z,25.15
2018-11-11T02:04:27.299Z,24.32
2018-11-11T02:06:55.274Z,26.70
2018-11-11T02:09:23.267Z,25.82
2018-11-11T02:11:51.308Z,27.73
2018-11-11T02:14:19.822Z,24.32
2018-11-11T02:16:48.527Z,24.87
2018-11-11T02:19:16.829Z,22.93
2018-11-11T02:21:45.009Z,26.50
2018-11-11T02:24:13.155Z,26.65
2018-11-11T02:26:41.151Z,25.52
2018-11-11T02:29:09.131Z,25.10
2018-11-11T02:31:37.211Z,26.40
2018-11-11T02:34:05.885Z,26.05
2018-11-11T02:36:34.985Z,23.80
2018-11-11T02:39:03.806Z,25.27
2018-11-11T02:41:32.142Z,23.95
2018-11-11T02:44:00.120Z,26.23
2018-11-11T02:46:28.120Z,26.87
2018-11-11T02:48:56.067Z,27.65
2018-11-11T02:51:23.981Z,25.80
2018-11-11T02:53:52.756Z,28.30
2018-11-11T02:56:20.685Z,30.00
2018-11-11T02:58:49.509Z,29.63
2018-11-11T03:01:17.491Z,27.62
2018-11-11T03:03:45.627Z,29.80
2018-11-11T03:06:13.577Z,32.15
2018-11-11T03:08:41.994Z,31.12
2018-11-11T03:11:10.010Z,27.48
2018-11-11T03:13:37.967Z,26.37
2018-11-11T03:16:05.897Z,29.10
2018-11-11T03:18:34.250Z,26.80
2018-11-11T03:21:02.213Z,29.85
2018-11-11T03:23:30.259Z,25.60
2018-11-11T03:25:58.327Z,25.50
2018-11-11T03:28:26.352Z,25.48
2018-11-11T03:30:54.543Z,26.30
2018-11-11T03:33:22.615Z,24.95
2018-11-11T03:35:50.609Z,25.92
2018-11-11T03:38:18.718Z,29.02
2018-11-11T03:40:46.796Z,28.27
2018-11-11T03:43:16.287Z,28.95
2018-11-11T03:45:45.502Z,28.35
2018-11-11T03:48:13.527Z,25.85
2018-11-11T03:50:41.539Z,27.67
2018-11-11T03:53:10.700Z,25.70
2018-11-11T03:55:38.658Z,25.68
2018-11-11T03:58:06.800Z,26.80
2018-11-11T04:00:35.364Z,25.02
2018-11-11T04:03:03.313Z,26.17
2018-11-11T04:05:31.495Z,25.97
2018-11-11T04:08:00.626Z,26.73
2018-11-11T04:10:28.793Z,23.02
2018-11-11T04:12:56.886Z,22.98
2018-11-11T04:15:24.827Z,24.77
2018-11-11T04:17:52.782Z,24.90
2018-11-11T04:20:20.924Z,26.23
2018-11-11T04:22:48.879Z,24.82
2018-11-11T04:25:17.671Z,23.60
2018-11-11T04:27:45.642Z,26.60
2018-11-11T04:30:14.469Z,24.35
2018-11-11T04:32:42.722Z,24.95
2018-11-11T04:35:10.925Z,25.15
2018-11-11T04:37:38.913Z,26.90
2018-11-11T04:40:07.630Z,25.43
2018-11-11T04:42:35.808Z,24.35
2018-11-11T04:45:03.814Z,24.23
2018-11-11T04:47:31.728Z,24.35
2018-11-11T04:49:59.700Z,21.97
2018-11-11T04:52:27.608Z,24.87
2018-11-11T04:54:55.566Z,24.18
2018-11-11T04:57:23.513Z,22.65
2018-11-11T04:59:51.470Z,22.93
2018-11-11T05:02:19.392Z,24.15
2018-11-11T05:04:47.413Z,23.22
2018-11-11T05:07:15.340Z,22.45
2018-11-11T05:09:43.250Z,22.93
2018-11-11T05:12:11.246Z,22.98
2018-11-11T05:14:39.173Z,24.82
2018-11-11T05:17:07.089Z,23.50
2018-11-11T05:19:35.062Z,24.27
2018-11-11T05:22:03.052Z,23.12
2018-11-11T05:24:31.764Z,23.27
2018-11-11T05:26:59.701Z,24.20
2018-11-11T05:29:27.611Z,23.20
2018-11-11T05:31:55.595Z,22.35
2018-11-11T05:34:23.508Z,22.60
2018-11-11T05:36:51.458Z,26.37
2018-11-11T05:39:19.910Z,24.10
2018-11-11T05:41:47.850Z,25.82
2018-11-11T05:44:15.801Z,23.80
2018-11-11T05:46:43.727Z,23.22
2018-11-11T05:49:11.672Z,23.42
2018-11-11T05:51:39.629Z,23.85
2018-11-11T05:54:07.604Z,22.05
2018-11-11T05:56:35.548Z,21.35
2018-11-11T05:59:03.496Z,21.55
2018-11-11T06:01:31.454Z,21.52
2018-11-11T06:03:59.439Z,21.65
2018-11-11T06:06:28.295Z,21.93
2018-11-11T06:08:56.248Z,24.02
2018-11-11T06:11:24.218Z,22.45
2018-11-11T06:13:52.177Z,24.37
2018-11-11T06:16:20.155Z,24.15
2018-11-11T06:18:48.093Z,23.70
2018-11-11T06:21:16.093Z,22.93
2018-11-11T06:23:44.119Z,22.98
2018-11-11T06:26:12.055Z,21.80
2018-11-11T06:28:39.998Z,22.73
2018-11-11T06:31:07.931Z,19.62
2018-11-11T06:33:35.887Z,16.62
2018-11-11T06:36:03.896Z,10.67
2018-11-11T06:38:32.055Z,9.80
2018-11-11T06:41:00.040Z,8.67
2018-11-11T06:43:27.976Z,8.30
2018-11-11T06:45:55.951Z,8.17
2018-11-11T06:48:23.969Z,8.13
2018-11-11T06:50:51.941Z,8.33
2018-11-11T06:53:19.900Z,9.00
2018-11-11T06:55:47.933Z,8.50
2018-11-11T06:58:15.985Z,9.20
2018-11-11T07:00:43.798Z,9.20
2018-11-11T07:03:17.254Z,9.00
2018-11-11T07:05:45.382Z,9.73
2018-11-11T07:08:13.342Z,8.57
2018-11-11T07:10:41.337Z,8.10
2018-11-11T07:13:09.295Z,7.33
2018-11-11T07:15:37.206Z,8.20
2018-11-11T07:18:05.144Z,7.73
2018-11-11T07:20:33.091Z,7.30
2018-11-11T07:23:01.081Z,6.90
2018-11-11T07:25:29.035Z,7.30
2018-11-11T07:27:57.298Z,7.23
2018-11-11T07:30:25.339Z,7.17
2018-11-11T07:32:53.270Z,7.70
2018-11-11T07:35:21.235Z,7.27
2018-11-11T07:37:49.277Z,7.17
2018-11-11T07:40:17.268Z,7.57
2018-11-11T07:42:46.150Z,7.23
2018-11-11T07:45:14.158Z,7.93
2018-11-11T07:47:42.701Z,7.50
2018-11-11T07:50:11.159Z,7.37
2018-11-11T07:52:39.137Z,6.60
2018-11-11T07:55:09.379Z,7.10
2018-11-11T07:57:37.328Z,7.33
2018-11-11T08:00:06.933Z,7.33
2018-11-11T08:02:34.875Z,7.30
2018-11-11T08:05:03.000Z,7.17
2018-11-11T08:07:31.056Z,7.10
2018-11-11T08:09:58.977Z,6.40
2018-11-11T08:12:27.047Z,7.33
2018-11-11T08:14:55.009Z,7.20
2018-11-11T08:17:22.980Z,6.70
2018-11-11T08:19:50.970Z,7.10
2018-11-11T08:22:18.918Z,6.87
2018-11-11T08:24:46.852Z,6.70
2018-11-11T08:27:15.573Z,7.10
2018-11-11T08:29:43.523Z,8.20
2018-11-11T08:32:11.549Z,7.17
2018-11-11T08:34:39.483Z,6.70
2018-11-11T08:37:07.422Z,7.17
2018-11-11T08:39:35.378Z,6.70
2018-11-11T08:42:03.380Z,7.50
2018-11-11T08:44:31.383Z,5.70
2018-11-11T08:46:59.427Z,5.90
2018-11-11T08:49:27.502Z,6.00
2018-11-11T08:51:55.496Z,6.70
2018-11-11T08:54:23.514Z,6.40
2018-11-11T08:56:51.511Z,6.93
2018-11-11T08:59:19.771Z,6.30
2018-11-11T09:01:47.918Z,5.73
2018-11-11T09:04:15.919Z,5.73
2018-11-11T09:06:43.871Z,6.10
2018-11-11T09:09:11.858Z,5.67
2018-11-11T09:11:39.857Z,6.20
2018-11-11T09:14:07.905Z,6.17
2018-11-11T09:16:36.249Z,6.30
2018-11-11T09:19:04.399Z,6.93
2018-11-11T09:21:32.447Z,5.73
2018-11-11T09:24:00.373Z,6.57
2018-11-11T09:26:28.313Z,6.77
2018-11-11T09:28:56.276Z,7.37
2018-11-11T09:31:24.226Z,6.60
2018-11-11T09:33:52.246Z,6.50
2018-11-11T09:36:20.180Z,5.87
2018-11-11T09:38:48.220Z,5.60
2018-11-11T09:41:16.239Z,6.37
2018-11-11T09:43:44.229Z,5.80
2018-11-11T09:46:12.174Z,6.47
2018-11-11T09:48:40.123Z,6.80
2018-11-11T09:51:08.150Z,5.80
2018-11-11T09:53:36.135Z,6.90
2018-11-11T09:56:04.159Z,5.80
2018-11-11T09:58:32.213Z,6.33
2018-11-11T10:01:00.178Z,6.30
2018-11-11T10:03:42.811Z,6.30
2018-11-11T10:06:27.378Z,7.13
2018-11-11T10:11:03.320Z,6.60
2018-11-11T10:13:37.012Z,6.10
2018-11-11T10:16:09.041Z,5.13
2018-11-11T10:18:40.151Z,5.83
2018-11-11T10:21:13.256Z,4.90
2018-11-11T10:23:46.187Z,5.20
2018-11-11T10:26:20.102Z,5.17
2018-11-11T10:28:57.419Z,5.67
2018-11-11T10:31:35.986Z,4.20
2018-11-11T10:34:09.523Z,5.53
2018-11-11T10:36:48.643Z,4.97
2018-11-11T10:39:22.204Z,4.87
2018-11-11T10:42:53.455Z,5.37
2018-11-11T10:45:32.389Z,5.00
2018-11-11T10:48:05.648Z,4.50
2018-11-11T10:50:43.289Z,4.43
2018-11-11T10:53:11.288Z,4.50
2018-11-11T10:55:39.332Z,4.77
2018-11-11T10:58:07.290Z,4.30
2018-11-11T11:00:42.222Z,4.60
2018-11-11T11:03:15.675Z,4.30
2018-11-11T11:05:45.028Z,4.37
2018-11-11T11:08:13.187Z,5.80
2018-11-11T11:10:41.203Z,4.37
2018-11-11T11:13:09.320Z,4.67
2018-11-11T11:15:37.294Z,4.27
2018-11-11T11:18:05.252Z,4.83
2018-11-11T11:20:33.405Z,4.50
2018-11-11T11:23:01.411Z,4.27
2018-11-11T11:25:29.617Z,4.30
2018-11-11T11:27:57.598Z,4.07
2018-11-11T11:30:25.562Z,4.07
2018-11-11T11:32:53.535Z,3.93
2018-11-11T11:35:21.557Z,3.77
2018-11-11T11:37:49.616Z,4.47
2018-11-11T11:40:18.322Z,4.10
2018-11-11T11:42:46.305Z,4.30
2018-11-11T11:45:14.992Z,3.70
2018-11-11T11:47:43.082Z,4.30
2018-11-11T11:50:12.330Z,4.67
2018-11-11T11:52:42.224Z,4.60
2018-11-11T11:55:10.889Z,3.60
2018-11-11T11:57:39.070Z,3.50
2018-11-11T12:00:12.741Z,4.13
2018-11-11T12:02:40.999Z,3.37
2018-11-11T12:05:13.078Z,4.20
2018-11-11T12:07:41.104Z,3.80
2018-11-11T12:10:09.776Z,3.47
2018-11-11T12:12:38.080Z,2.93
2018-11-11T12:15:06.905Z,3.33
2018-11-11T12:17:35.294Z,3.33
2018-11-11T12:20:09.934Z,2.60
2018-11-11T12:22:37.977Z,3.13
2018-11-11T12:25:07.358Z,2.90
2018-11-11T12:27:35.396Z,3.57
2018-11-11T12:30:03.804Z,2.77
2018-11-11T12:32:34.034Z,2.90
2018-11-11T12:35:02.552Z,3.00
2018-11-11T12:37:31.179Z,3.00
2018-11-11T12:39:59.418Z,3.10
2018-11-11T12:42:27.417Z,2.80
2018-11-11T12:44:56.188Z,3.00
2018-11-11T12:47:24.160Z,3.53
2018-11-11T12:49:52.455Z,2.67
2018-11-11T12:52:21.024Z,3.27
2018-11-11T12:54:49.088Z,2.60
2018-11-11T12:57:17.287Z,2.77
2018-11-11T12:59:47.255Z,2.40
2018-11-11T13:02:15.226Z,2.33
2018-11-11T13:04:43.250Z,2.50
2018-11-11T13:07:11.228Z,2.77
2018-11-11T13:09:39.256Z,2.23
2018-11-11T13:12:07.460Z,2.80
2018-11-11T13:14:35.684Z,2.93
2018-11-11T13:17:03.690Z,2.37
2018-11-11T13:19:32.072Z,2.63
2018-11-11T13:22:00.093Z,3.17
2018-11-11T13:24:28.756Z,2.27
2018-11-11T13:26:56.772Z,2.30
2018-11-11T13:29:24.816Z,2.60
2018-11-11T13:31:52.985Z,2.10
2018-11-11T13:34:20.945Z,2.20
2018-11-11T13:36:48.928Z,2.47
2018-11-11T13:39:16.855Z,2.27
2018-11-11T13:41:44.795Z,2.50
2018-11-11T13:44:12.796Z,2.93
2018-11-11T13:46:40.897Z,2.20
2018-11-11T13:49:08.737Z,2.73
2018-11-11T13:51:37.433Z,2.40
2018-11-11T13:54:05.622Z,2.20
2018-11-11T13:56:33.565Z,2.23
2018-11-11T13:59:01.651Z,2.20
2018-11-11T14:01:30.042Z,2.10
2018-11-11T14:03:58.119Z,2.03
2018-11-11T14:06:26.667Z,2.60
2018-11-11T14:08:54.716Z,1.80
2018-11-11T14:11:22.712Z,2.30
2018-11-11T14:13:50.686Z,1.80
2018-11-11T14:16:18.747Z,1.83
2018-11-11T14:18:46.929Z,2.10
2018-11-11T14:21:14.835Z,2.17
2018-11-11T14:23:42.781Z,2.07
2018-11-11T14:26:10.984Z,2.10
2018-11-11T14:28:38.999Z,2.27
2018-11-11T14:31:07.466Z,2.30
2018-11-11T14:33:35.726Z,1.53
2018-11-11T14:36:03.809Z,2.40
2018-11-11T14:38:32.078Z,1.50
2018-11-11T14:41:00.041Z,1.73
2018-11-11T14:43:28.069Z,1.83
2018-11-11T14:45:56.066Z,2.10
2018-11-11T14:48:25.116Z,1.50
2018-11-11T14:50:53.267Z,2.20
2018-11-11T14:53:21.268Z,1.80
2018-11-11T14:55:49.233Z,1.70
2018-11-11T14:58:17.272Z,1.70
2018-11-11T15:00:45.271Z,1.93
2018-11-11T15:03:16.038Z,1.73
2018-11-11T15:05:44.128Z,1.80
2018-11-11T15:08:12.155Z,1.90
2018-11-11T15:10:40.197Z,1.80
2018-11-11T15:13:08.852Z,2.00
2018-11-11T15:15:36.942Z,1.90
2018-11-11T15:18:05.160Z,2.07
2018-11-11T15:20:33.513Z,2.37
2018-11-11T15:23:01.722Z,2.33
2018-11-11T15:25:30.571Z,2.13
2018-11-11T15:27:58.458Z,1.87
2018-11-11T15:30:28.747Z,2.23
2018-11-11T15:32:57.268Z,2.50
2018-11-11T15:35:25.248Z,2.80
2018-11-11T15:37:53.335Z,2.50
2018-11-11T15:40:22.765Z,2.90
2018-11-11T15:42:50.838Z,3.33
2018-11-11T15:45:22.383Z,3.50
2018-11-11T15:47:53.421Z,3.63
2018-11-11T15:50:23.766Z,3.70
2018-11-11T15:52:53.122Z,4.03
2018-11-11T15:55:22.289Z,3.97
2018-11-11T15:57:51.220Z,4.77
2018-11-11T16:00:20.657Z,4.90
2018-11-11T16:02:49.176Z,5.20
2018-11-11T16:05:18.116Z,5.47
2018-11-11T16:07:46.927Z,6.03
2018-11-11T16:10:18.822Z,6.10
2018-11-11T16:12:47.163Z,5.10
2018-11-11T16:15:16.968Z,4.93
2018-11-11T16:17:46.025Z,5.10
2018-11-11T16:20:16.277Z,5.43
2018-11-11T16:22:45.505Z,5.70
2018-11-11T16:25:13.570Z,5.77
2018-11-11T16:27:42.635Z,5.90
2018-11-11T16:30:12.400Z,6.37
2018-11-11T16:32:40.557Z,6.10
2018-11-11T16:35:10.200Z,6.40
2018-11-11T16:37:39.110Z,7.33
2018-11-11T16:40:08.759Z,8.40
2018-11-11T16:42:36.976Z,7.80
2018-11-11T16:45:05.537Z,6.90
2018-11-11T16:47:33.492Z,7.80
2018-11-11T16:50:01.915Z,6.97
2018-11-11T16:52:29.915Z,6.90
2018-11-11T16:54:57.914Z,7.33
2018-11-11T16:57:26.959Z,7.63
2018-11-11T16:59:55.275Z,7.97
2018-11-11T17:02:23.312Z,8.00
2018-11-11T17:04:51.305Z,9.07
2018-11-11T17:07:19.340Z,9.10
2018-11-11T17:09:49.573Z,8.70
2018-11-11T17:12:17.626Z,8.80
2018-11-11T17:14:45.737Z,7.97
2018-11-11T17:17:13.763Z,7.70
2018-11-11T17:19:41.810Z,9.03
2018-11-11T17:22:10.243Z,8.47
2018-11-11T17:24:37.916Z,9.00
2018-11-11T17:27:05.971Z,9.53
2018-11-11T17:29:34.008Z,9.00
2018-11-11T17:32:04.410Z,8.60
2018-11-11T17:34:32.457Z,8.40
2018-11-11T17:37:00.427Z,8.40
2018-11-11T17:39:28.393Z,8.03
2018-11-11T17:41:56.934Z,10.20
2018-11-11T17:44:25.123Z,8.60
2018-11-11T17:46:53.189Z,10.33
2018-11-11T17:49:21.239Z,11.00
2018-11-11T17:51:49.661Z,9.90
2018-11-11T17:54:17.776Z,10.13
2018-11-11T17:56:45.912Z,8.67
2018-11-11T17:59:14.027Z,9.50
2018-11-11T18:01:42.098Z,8.50
2018-11-11T18:04:10.128Z,10.50
2018-11-11T18:06:38.117Z,9.00
2018-11-11T18:09:07.317Z,8.80
2018-11-11T18:11:35.389Z,10.70
2018-11-11T18:14:03.593Z,9.77
2018-11-11T18:16:31.556Z,9.27
2018-11-11T18:18:59.616Z,8.47
2018-11-11T18:21:32.475Z,9.90
2018-11-11T18:24:00.968Z,8.93
2018-11-11T18:26:29.023Z,9.33
2018-11-11T18:28:57.063Z,9.10
2018-11-11T18:31:25.167Z,9.60
2018-11-11T18:33:53.183Z,9.70
2018-11-11T18:36:21.201Z,9.87
2018-11-11T18:38:52.520Z,10.13
2018-11-11T18:41:20.964Z,10.07
2018-11-11T18:43:49.036Z,9.27
2018-11-11T18:46:17.062Z,9.90
2018-11-11T18:48:45.041Z,9.93
2018-11-11T18:51:13.016Z,10.63
2018-11-11T18:53:41.072Z,9.60
2018-11-11T18:56:09.111Z,9.20
2018-11-11T18:58:53.773Z,11.30
2018-11-11T19:01:33.444Z,10.10
2018-11-11T19:04:04.751Z,9.77
2018-11-11T19:06:32.956Z,9.87
2018-11-11T19:09:00.972Z,9.40
2018-11-11T19:11:28.971Z,10.53
2018-11-11T19:13:57.095Z,11.07
2018-11-11T19:16:25.118Z,11.27
2018-11-11T19:18:53.194Z,10.73
2018-11-11T19:21:21.305Z,11.07
2018-11-11T19:23:49.440Z,10.07
2018-11-11T19:26:17.405Z,10.37
2018-11-11T19:28:45.703Z,11.57
2018-11-11T19:31:13.922Z,11.90
2018-11-11T19:33:42.951Z,11.63
2018-11-11T19:36:12.069Z,10.20
2018-11-11T19:38:41.032Z,12.13
2018-11-11T19:41:09.136Z,11.87
2018-11-11T19:43:37.284Z,11.17
2018-11-11T19:46:05.589Z,11.63
2018-11-11T19:48:33.666Z,12.47
2018-11-11T19:51:01.722Z,10.33
2018-11-11T19:53:29.959Z,9.40
2018-11-11T19:55:58.017Z,9.57
2018-11-11T19:58:26.077Z,9.90
2018-11-11T20:00:54.261Z,10.40
2018-11-11T20:03:22.489Z,10.63
2018-11-11T20:05:50.643Z,10.90
2018-11-11T20:08:18.675Z,10.80
2018-11-11T20:10:46.775Z,9.57
2018-11-11T20:13:15.069Z,10.37
2018-11-11T20:15:43.236Z,10.77
2018-11-11T20:18:11.505Z,10.30
2018-11-11T20:20:39.976Z,10.27
2018-11-11T20:23:07.975Z,10.70
2018-11-11T20:25:36.148Z,9.77
2018-11-11T20:28:04.415Z,10.07
2018-11-11T20:30:34.122Z,10.83
2018-11-11T20:33:02.609Z,10.70
2018-11-11T20:35:31.368Z,10.80
2018-11-11T20:37:59.554Z,11.50
2018-11-11T20:40:28.229Z,11.00
2018-11-11T20:42:56.801Z,11.13
2018-11-11T20:45:26.365Z,10.83
2018-11-11T20:47:55.431Z,10.83
2018-11-11T20:50:25.628Z,11.37
2018-11-11T20:53:08.446Z,11.80
2018-11-11T20:55:36.516Z,10.87
2018-11-11T20:58:04.789Z,10.93
2018-11-11T21:00:35.107Z,11.43
2018-11-11T21:03:03.280Z,12.43
2018-11-11T21:05:31.360Z,11.60
2018-11-11T21:07:59.520Z,11.93
2018-11-11T21:10:37.765Z,10.93
2018-11-11T21:13:05.775Z,9.90
2018-11-11T21:15:33.952Z,10.80
2018-11-11T21:18:01.975Z,10.00
2018-11-11T21:20:31.296Z,10.90
2018-11-11T21:22:59.418Z,11.10
2018-11-11T21:25:27.431Z,10.07
2018-11-11T21:27:55.423Z,9.67
2018-11-11T21:30:24.858Z,9.77
2018-11-11T21:32:52.869Z,9.87
2018-11-11T21:35:21.915Z,10.27
2018-11-11T21:37:50.025Z,9.93
2018-11-11T21:40:22.858Z,10.77
2018-11-11T21:43:04.022Z,9.27
2018-11-11T21:45:32.052Z,10.17
2018-11-11T21:48:00.090Z,9.43
2018-11-11T21:50:28.411Z,9.53
2018-11-11T21:53:02.401Z,10.37
2018-11-11T21:55:30.337Z,11.47
2018-11-11T21:57:58.291Z,11.77
2018-11-11T22:00:26.361Z,9.97
2018-11-11T22:02:54.350Z,10.17
2018-11-11T22:05:22.392Z,10.03
2018-11-11T22:07:50.342Z,10.20
2018-11-11T22:10:18.332Z,10.73
2018-11-11T22:12:46.358Z,9.27
2018-11-11T22:15:14.315Z,9.87
2018-11-11T22:17:42.320Z,9.23
2018-11-11T22:20:10.874Z,9.20
2018-11-11T22:22:38.952Z,10.43
2018-11-11T22:25:07.042Z,10.73
2018-11-11T22:27:35.402Z,11.30
2018-11-11T22:30:03.568Z,12.53
2018-11-11T22:32:31.583Z,12.43
2018-11-11T22:34:59.554Z,11.33
2018-11-11T22:37:27.587Z,12.20
2018-11-11T22:39:55.581Z,11.43
2018-11-11T22:42:23.687Z,11.23
2018-11-11T22:44:51.570Z,10.63
2018-11-11T22:47:19.523Z,12.47
2018-11-11T22:49:47.543Z,11.23
2018-11-11T22:52:15.511Z,9.83
2018-11-11T22:54:43.494Z,10.63
2018-11-11T22:57:11.454Z,11.53
2018-11-11T22:59:39.415Z,10.70
2018-11-11T23:02:07.500Z,11.60
2018-11-11T23:04:35.470Z,11.90
2018-11-11T23:07:03.502Z,11.20
2018-11-11T23:09:31.457Z,13.43
2018-11-11T23:11:59.432Z,11.83
2018-11-11T23:14:27.438Z,10.80
2018-11-11T23:16:55.422Z,12.73
2018-11-11T23:19:23.397Z,11.93
2018-11-11T23:21:51.388Z,13.00
2018-11-11T23:24:19.370Z,13.77
2018-11-11T23:26:47.333Z,12.40
2018-11-11T23:29:15.266Z,11.17
2018-11-11T23:31:43.223Z,12.10
2018-11-11T23:34:11.200Z,12.80
2018-11-11T23:36:39.187Z,13.17
2018-11-11T23:39:07.958Z,12.23
2018-11-11T23:41:35.879Z,13.20
2018-11-11T23:44:04.130Z,11.53
2018-11-11T23:46:32.084Z,12.70
2018-11-11T23:49:00.078Z,11.80
2018-11-11T23:51:28.119Z,13.97
2018-11-11T23:53:56.138Z,13.67
2018-11-11T23:56:24.077Z,13.43
2018-11-11T23:58:51.995Z,11.30
